PWSweather.com
Personal Weather Stations
Station Observations
01979
Ravne Pri CerknemSI 5282

Ravne Pri CerknemSI 5282

Lat: 46.1213916, Lon: 13.952774299999987

Elevation: 2244.094488

Station Type: Techo Line WS2307

www.vremenska.postaja.andre.si/

High Low Average
Temperature 57.7°F14.3°C 37.9°F3.3°C 46.7°F8.2°C
Dew Point 37.0°F2.8°C 28.8°F-1.8°C 32.4°F0.2°C
Winds 15.5 mph 24.9 kmh Calm Calm 4.0 mph ENE6.4 kmh ENE
Wind Gusts 25.1 mph40.4 kmh -- 6.0 mph9.7 kmh
Humidity 77% 41% 59%
Pressure 30.42 in1030.1 mb 30.24 in1024.0 mb -
Precipitation 0.00 in0.0 mm - -
Hour Temp Dew Point Humidity Winds Wind Gusts Pressure Precip Precip Rate Daily Precip Total
12:00 AM 42.6°F5.9°C 33.9°F1.1°C 71% Calm Calm -- 30.32 in1026.8 mb 0.00 in0.0 mm 0.00 in0.0 mm 0.00 in0.0 mm
12:10 AM 43.0°F6.1°C 34.2°F1.2°C 71% Calm Calm -- 30.32 in1026.8 mb 0.00 in0.0 mm 0.00 in0.0 mm 0.00 in0.0 mm
12:20 AM 42.6°F5.9°C 33.9°F1.1°C 71% Calm Calm -- 30.32 in1026.8 mb 0.00 in0.0 mm 0.00 in0.0 mm 0.00 in0.0 mm
12:30 AM 42.6°F5.9°C 34.2°F1.2°C 72% Calm Calm -- 30.32 in1026.8 mb 0.00 in0.0 mm 0.00 in0.0 mm 0.00 in0.0 mm
12:40 AM 42.4°F5.8°C 34.0°F1.1°C 72% Calm Calm -- 30.32 in1026.8 mb 0.00 in0.0 mm 0.00 in0.0 mm 0.00 in0.0 mm
12:50 AM 42.1°F5.6°C 33.7°F0.9°C 72% Calm Calm -- 30.31 in1026.4 mb 0.00 in0.0 mm 0.00 in0.0 mm 0.00 in0.0 mm
01:00 AM 42.3°F5.7°C 33.9°F1.1°C 73% Calm Calm -- 30.31 in1026.4 mb 0.00 in0.0 mm 0.00 in0.0 mm 0.00 in0.0 mm
01:10 AM 41.9°F5.5°C 33.9°F1.1°C 73% Calm Calm -- 30.32 in1026.8 mb 0.00 in0.0 mm 0.00 in0.0 mm 0.00 in0.0 mm
01:20 AM 41.5°F5.3°C 33.9°F1.1°C 74% Calm Calm -- 30.31 in1026.4 mb 0.00 in0.0 mm 0.00 in0.0 mm 0.00 in0.0 mm
01:30 AM 40.8°F4.9°C 33.2°F0.7°C 74% Calm Calm -- 30.31 in1026.4 mb 0.00 in0.0 mm 0.00 in0.0 mm 0.00 in0.0 mm
01:40 AM 40.8°F4.9°C 33.5°F0.8°C 75% Calm Calm -- 30.30 in1026.1 mb 0.00 in0.0 mm 0.00 in0.0 mm 0.00 in0.0 mm
01:50 AM 41.2°F5.1°C 33.5°F0.8°C 74% Calm Calm -- 30.30 in1026.1 mb 0.00 in0.0 mm 0.00 in0.0 mm 0.00 in0.0 mm
02:00 AM 40.8°F4.9°C 33.2°F0.7°C 74% Calm Calm -- 30.30 in1026.1 mb 0.00 in0.0 mm 0.00 in0.0 mm 0.00 in0.0 mm
02:03 AM 40.8°F4.9°C 33.5°F0.8°C 75% Calm Calm -- 30.30 in1026.1 mb 0.00 in0.0 mm 0.00 in0.0 mm 0.00 in0.0 mm
02:10 AM 41.5°F5.3°C 33.9°F1.1°C 74% Calm Calm -- 30.30 in1026.1 mb 0.00 in0.0 mm 0.00 in0.0 mm 0.00 in0.0 mm
02:20 AM 41.5°F5.3°C 33.5°F0.8°C 73% Calm Calm -- 30.30 in1026.1 mb 0.00 in0.0 mm 0.00 in0.0 mm 0.00 in0.0 mm
02:30 AM 40.8°F4.9°C 33.2°F0.7°C 74% Calm Calm -- 30.30 in1026.1 mb 0.00 in0.0 mm 0.00 in0.0 mm 0.00 in0.0 mm
02:40 AM 40.6°F4.8°C 33.0°F0.6°C 74% Calm Calm -- 30.29 in1025.7 mb 0.00 in0.0 mm 0.00 in0.0 mm 0.00 in0.0 mm
02:50 AM 40.8°F4.9°C 33.2°F0.7°C 74% Calm Calm -- 30.29 in1025.7 mb 0.00 in0.0 mm 0.00 in0.0 mm 0.00 in0.0 mm
03:00 AM 40.8°F4.9°C 33.5°F0.8°C 75% Calm Calm -- 30.28 in1025.4 mb 0.00 in0.0 mm 0.00 in0.0 mm 0.00 in0.0 mm
03:10 AM 40.6°F4.8°C 33.0°F0.6°C 74% Calm Calm -- 30.29 in1025.7 mb 0.00 in0.0 mm 0.00 in0.0 mm 0.00 in0.0 mm
03:20 AM 40.5°F4.7°C 33.2°F0.7°C 75% Calm Calm -- 30.28 in1025.4 mb 0.00 in0.0 mm 0.00 in0.0 mm 0.00 in0.0 mm
03:30 AM 39.9°F4.4°C 32.6°F0.3°C 75% Calm Calm -- 30.29 in1025.7 mb 0.00 in0.0 mm 0.00 in0.0 mm 0.00 in0.0 mm
03:40 AM 39.9°F4.4°C 32.6°F0.3°C 75% Calm Calm -- 30.27 in1025.1 mb 0.00 in0.0 mm 0.00 in0.0 mm 0.00 in0.0 mm
03:50 AM 39.9°F4.4°C 32.6°F0.3°C 75% Calm Calm -- 30.27 in1025.1 mb 0.00 in0.0 mm 0.00 in0.0 mm 0.00 in0.0 mm
04:00 AM 39.7°F4.3°C 32.8°F0.4°C 76% Calm Calm -- 30.27 in1025.1 mb 0.00 in0.0 mm 0.00 in0.0 mm 0.00 in0.0 mm
04:10 AM 39.4°F4.1°C 32.4°F0.2°C 76% Calm Calm -- 30.27 in1025.1 mb 0.00 in0.0 mm 0.00 in0.0 mm 0.00 in0.0 mm
04:20 AM 39.7°F4.3°C 32.8°F0.4°C 76% Calm Calm -- 30.27 in1025.1 mb 0.00 in0.0 mm 0.00 in0.0 mm 0.00 in0.0 mm
04:30 AM 39.7°F4.3°C 32.8°F0.4°C 76% Calm Calm -- 30.27 in1025.1 mb 0.00 in0.0 mm 0.00 in0.0 mm 0.00 in0.0 mm
04:40 AM 40.1°F4.5°C 32.8°F0.4°C 75% Calm Calm -- 30.27 in1025.1 mb 0.00 in0.0 mm 0.00 in0.0 mm 0.00 in0.0 mm
04:50 AM 39.9°F4.4°C 32.6°F0.3°C 75% Calm Calm -- 30.27 in1025.1 mb 0.00 in0.0 mm 0.00 in0.0 mm 0.00 in0.0 mm
05:00 AM 39.9°F4.4°C 32.3°F0.2°C 74% Calm Calm -- 30.26 in1024.7 mb 0.00 in0.0 mm 0.00 in0.0 mm 0.00 in0.0 mm
05:10 AM 39.6°F4.2°C 31.6°F-0.2°C 73% Calm Calm -- 30.26 in1024.7 mb 0.00 in0.0 mm 0.00 in0.0 mm 0.00 in0.0 mm
05:20 AM 39.4°F4.1°C 31.8°F-0.1°C 74% Calm Calm -- 30.26 in1024.7 mb 0.00 in0.0 mm 0.00 in0.0 mm 0.00 in0.0 mm
05:30 AM 39.7°F4.3°C 32.1°F0.1°C 74% Calm Calm -- 30.26 in1024.7 mb 0.00 in0.0 mm 0.00 in0.0 mm 0.00 in0.0 mm
05:40 AM 39.6°F4.2°C 32.3°F0.2°C 75% Calm Calm -- 30.26 in1024.7 mb 0.00 in0.0 mm 0.00 in0.0 mm 0.00 in0.0 mm
05:50 AM 39.4°F4.1°C 32.1°F0.1°C 75% Calm Calm -- 30.25 in1024.4 mb 0.00 in0.0 mm 0.00 in0.0 mm 0.00 in0.0 mm
06:00 AM 39.4°F4.1°C 32.4°F0.2°C 76% Calm Calm -- 30.24 in1024.0 mb 0.00 in0.0 mm 0.00 in0.0 mm 0.00 in0.0 mm
06:10 AM 39.4°F4.1°C 32.4°F0.2°C 76% Calm Calm -- 30.24 in1024.0 mb 0.00 in0.0 mm 0.00 in0.0 mm 0.00 in0.0 mm
06:20 AM 39.0°F3.9°C 31.8°F-0.1°C 75% Calm Calm -- 30.24 in1024.0 mb 0.00 in0.0 mm 0.00 in0.0 mm 0.00 in0.0 mm
06:30 AM 38.8°F3.8°C 31.9°F-0.1°C 76% Calm Calm -- 30.25 in1024.4 mb 0.00 in0.0 mm 0.00 in0.0 mm 0.00 in0.0 mm
06:40 AM 38.1°F3.4°C 31.2°F-0.4°C 76% 1.2 mph E1.9 kmh E 2.7 mph4.3 kmh 30.25 in1024.4 mb 0.00 in0.0 mm 0.00 in0.0 mm 0.00 in0.0 mm
06:50 AM 38.5°F3.6°C 31.9°F-0.1°C 77% Calm Calm -- 30.25 in1024.4 mb 0.00 in0.0 mm 0.00 in0.0 mm 0.00 in0.0 mm
07:00 AM 38.3°F3.5°C 31.7°F-0.2°C 77% Calm Calm -- 30.25 in1024.4 mb 0.00 in0.0 mm 0.00 in0.0 mm 0.00 in0.0 mm
07:10 AM 38.5°F3.6°C 31.9°F-0.1°C 77% Calm Calm -- 30.24 in1024.0 mb 0.00 in0.0 mm 0.00 in0.0 mm 0.00 in0.0 mm
07:20 AM 38.1°F3.4°C 31.2°F-0.4°C 76% 1.5 mph E2.4 kmh E 4.5 mph7.2 kmh 30.25 in1024.4 mb 0.00 in0.0 mm 0.00 in0.0 mm 0.00 in0.0 mm
07:30 AM 38.8°F3.8°C 30.9°F-0.6°C 73% 0.9 mph E1.4 kmh E 3.6 mph5.8 kmh 30.25 in1024.4 mb 0.00 in0.0 mm 0.00 in0.0 mm 0.00 in0.0 mm
07:40 AM 38.8°F3.8°C 30.9°F-0.6°C 73% Calm Calm -- 30.25 in1024.4 mb 0.00 in0.0 mm 0.00 in0.0 mm 0.00 in0.0 mm
07:50 AM 38.8°F3.8°C 31.3°F-0.4°C 74% 2.5 mph ESE4.0 kmh ESE 6.0 mph9.7 kmh 30.25 in1024.4 mb 0.00 in0.0 mm 0.00 in0.0 mm 0.00 in0.0 mm
08:00 AM 39.4°F4.1°C 32.1°F0.1°C 75% 3.1 mph E5.0 kmh E 4.9 mph7.9 kmh 30.25 in1024.4 mb 0.00 in0.0 mm 0.00 in0.0 mm 0.00 in0.0 mm
08:10 AM 39.7°F4.3°C 31.8°F-0.1°C 73% 1.0 mph ESE1.6 kmh ESE 2.9 mph4.7 kmh 30.25 in1024.4 mb 0.00 in0.0 mm 0.00 in0.0 mm 0.00 in0.0 mm
08:20 AM 39.7°F4.3°C 31.8°F-0.1°C 73% 0.3 mph SE0.5 kmh SE 1.3 mph2.1 kmh 30.26 in1024.7 mb 0.00 in0.0 mm 0.00 in0.0 mm 0.00 in0.0 mm
08:30 AM 41.7°F5.4°C 33.0°F0.6°C 71% 0.1 mph NNW0.2 kmh NNW 3.1 mph5.0 kmh 30.26 in1024.7 mb 0.00 in0.0 mm 0.00 in0.0 mm 0.00 in0.0 mm
08:40 AM 42.6°F5.9°C 34.2°F1.2°C 72% 0.6 mph NNW1.0 kmh NNW 3.1 mph5.0 kmh 30.26 in1024.7 mb 0.00 in0.0 mm 0.00 in0.0 mm 0.00 in0.0 mm
08:50 AM 43.5°F6.4°C 34.4°F1.3°C 70% Calm Calm -- 30.26 in1024.7 mb 0.00 in0.0 mm 0.00 in0.0 mm 0.00 in0.0 mm
09:00 AM 43.3°F6.3°C 33.5°F0.8°C 68% Calm Calm -- 30.26 in1024.7 mb 0.00 in0.0 mm 0.00 in0.0 mm 0.00 in0.0 mm
09:10 AM 44.6°F7.0°C 35.1°F1.7°C 69% 1.1 mph N1.8 kmh N 5.1 mph8.2 kmh 30.25 in1024.4 mb 0.00 in0.0 mm 0.00 in0.0 mm 0.00 in0.0 mm
09:20 AM 46.0°F7.8°C 35.3°F1.8°C 66% Calm Calm -- 30.26 in1024.7 mb 0.00 in0.0 mm 0.00 in0.0 mm 0.00 in0.0 mm
09:30 AM 46.9°F8.3°C 35.4°F1.9°C 64% 1.0 mph SSE1.6 kmh SSE 5.1 mph8.2 kmh 30.26 in1024.7 mb 0.00 in0.0 mm 0.00 in0.0 mm 0.00 in0.0 mm
09:40 AM 46.2°F7.9°C 35.5°F1.9°C 66% Calm Calm -- 30.27 in1025.1 mb 0.00 in0.0 mm 0.00 in0.0 mm 0.00 in0.0 mm
09:50 AM 47.3°F8.5°C 35.7°F2.1°C 64% Calm Calm -- 30.27 in1025.1 mb 0.00 in0.0 mm 0.00 in0.0 mm 0.00 in0.0 mm
10:00 AM 48.6°F9.2°C 35.3°F1.8°C 60% Calm Calm -- 30.27 in1025.1 mb 0.00 in0.0 mm 0.00 in0.0 mm 0.00 in0.0 mm
10:10 AM 48.2°F9.0°C 33.7°F0.9°C 57% 0.7 mph S1.1 kmh S 3.8 mph6.1 kmh 30.26 in1024.7 mb 0.00 in0.0 mm 0.00 in0.0 mm 0.00 in0.0 mm
10:20 AM 48.4°F9.1°C 35.1°F1.7°C 60% 1.6 mph SSE2.6 kmh SSE 5.1 mph8.2 kmh 30.26 in1024.7 mb 0.00 in0.0 mm 0.00 in0.0 mm 0.00 in0.0 mm
10:30 AM 49.6°F9.8°C 35.5°F1.9°C 58% 2.3 mph SSE3.7 kmh SSE 5.1 mph8.2 kmh 30.27 in1025.1 mb 0.00 in0.0 mm 0.00 in0.0 mm 0.00 in0.0 mm
10:40 AM 49.3°F9.6°C 34.2°F1.2°C 56% 1.3 mph S2.1 kmh S 4.3 mph6.9 kmh 30.27 in1025.1 mb 0.00 in0.0 mm 0.00 in0.0 mm 0.00 in0.0 mm
10:50 AM 50.9°F10.5°C 34.8°F1.6°C 54% 1.9 mph NW3.1 kmh NW 5.6 mph9.0 kmh 30.26 in1024.7 mb 0.00 in0.0 mm 0.00 in0.0 mm 0.00 in0.0 mm
11:00 AM 51.6°F10.9°C 34.6°F1.4°C 52% 4.2 mph NNW6.8 kmh NNW 6.7 mph10.8 kmh 30.27 in1025.1 mb 0.00 in0.0 mm 0.00 in0.0 mm 0.00 in0.0 mm
11:10 AM 52.2°F11.2°C 35.1°F1.7°C 52% 4.3 mph ENE6.9 kmh ENE 8.5 mph13.7 kmh 30.27 in1025.1 mb 0.00 in0.0 mm 0.00 in0.0 mm 0.00 in0.0 mm
11:20 AM 54.1°F12.3°C 36.4°F2.4°C 51% 6.5 mph ENE10.5 kmh ENE 8.5 mph13.7 kmh 30.27 in1025.1 mb 0.00 in0.0 mm 0.00 in0.0 mm 0.00 in0.0 mm
11:30 AM 55.2°F12.9°C 36.9°F2.7°C 50% 2.7 mph NNE4.3 kmh NNE 5.4 mph8.7 kmh 30.27 in1025.1 mb 0.00 in0.0 mm 0.00 in0.0 mm 0.00 in0.0 mm
11:40 AM 56.5°F13.6°C 37.0°F2.8°C 48% 0.7 mph NE1.1 kmh NE 2.0 mph3.2 kmh 30.27 in1025.1 mb 0.00 in0.0 mm 0.00 in0.0 mm 0.00 in0.0 mm
11:50 AM 55.8°F13.2°C 35.8°F2.1°C 47% 3.5 mph E5.6 kmh E 6.7 mph10.8 kmh 30.27 in1025.1 mb 0.00 in0.0 mm 0.00 in0.0 mm 0.00 in0.0 mm
12:00 PM 55.9°F13.3°C 35.4°F1.9°C 46% 5.8 mph E9.3 kmh E 14.5 mph23.3 kmh 30.27 in1025.1 mb 0.00 in0.0 mm 0.00 in0.0 mm 0.00 in0.0 mm
12:10 PM 57.7°F14.3°C 36.5°F2.5°C 45% 2.5 mph NNW4.0 kmh NNW 5.6 mph9.0 kmh 30.27 in1025.1 mb 0.00 in0.0 mm 0.00 in0.0 mm 0.00 in0.0 mm
12:20 PM 57.0°F13.9°C 35.3°F1.8°C 44% 4.6 mph E7.4 kmh E 8.7 mph14.0 kmh 30.26 in1024.7 mb 0.00 in0.0 mm 0.00 in0.0 mm 0.00 in0.0 mm
12:30 PM 57.0°F13.9°C 34.7°F1.5°C 43% 2.8 mph NNE4.5 kmh NNE 12.8 mph20.6 kmh 30.27 in1025.1 mb 0.00 in0.0 mm 0.00 in0.0 mm 0.00 in0.0 mm
12:40 PM 56.5°F13.6°C 34.2°F1.2°C 43% 9.6 mph NE15.4 kmh NE 13.4 mph21.6 kmh 30.26 in1024.7 mb 0.00 in0.0 mm 0.00 in0.0 mm 0.00 in0.0 mm
12:50 PM 56.1°F13.4°C 34.5°F1.4°C 44% 7.4 mph NE11.9 kmh NE 12.8 mph20.6 kmh 30.26 in1024.7 mb 0.00 in0.0 mm 0.00 in0.0 mm 0.00 in0.0 mm
01:00 PM 55.4°F13.0°C 33.8°F1.0°C 44% 9.8 mph ENE15.8 kmh ENE 12.8 mph20.6 kmh 30.27 in1025.1 mb 0.00 in0.0 mm 0.00 in0.0 mm 0.00 in0.0 mm
01:10 PM 55.8°F13.2°C 34.2°F1.2°C 44% 5.2 mph ENE8.4 kmh ENE 10.1 mph16.3 kmh 30.26 in1024.7 mb 0.00 in0.0 mm 0.00 in0.0 mm 0.00 in0.0 mm
01:20 PM 56.3°F13.5°C 34.1°F1.2°C 43% 6.8 mph NNE10.9 kmh NNE 14.8 mph23.8 kmh 30.26 in1024.7 mb 0.00 in0.0 mm 0.00 in0.0 mm 0.00 in0.0 mm
01:30 PM 56.8°F13.8°C 34.6°F1.4°C 43% 5.2 mph NNE8.4 kmh NNE 7.4 mph11.9 kmh 30.26 in1024.7 mb 0.00 in0.0 mm 0.00 in0.0 mm 0.00 in0.0 mm
01:40 PM 55.9°F13.3°C 33.7°F0.9°C 43% 5.8 mph NE9.3 kmh NE 6.9 mph11.1 kmh 30.26 in1024.7 mb 0.00 in0.0 mm 0.00 in0.0 mm 0.00 in0.0 mm
01:50 PM 56.5°F13.6°C 34.2°F1.2°C 43% 5.2 mph N8.4 kmh N 11.0 mph17.7 kmh 30.26 in1024.7 mb 0.00 in0.0 mm 0.00 in0.0 mm 0.00 in0.0 mm
02:00 PM 56.5°F13.6°C 33.6°F0.9°C 42% 6.0 mph N9.7 kmh N 14.1 mph22.7 kmh 30.26 in1024.7 mb 0.00 in0.0 mm 0.00 in0.0 mm 0.00 in0.0 mm
02:10 PM 56.3°F13.5°C 33.5°F0.8°C 42% 9.7 mph N15.6 kmh N 13.0 mph20.9 kmh 30.26 in1024.7 mb 0.00 in0.0 mm 0.00 in0.0 mm 0.00 in0.0 mm
02:20 PM 56.1°F13.4°C 33.9°F1.1°C 43% 6.4 mph NE10.3 kmh NE 10.1 mph16.3 kmh 30.27 in1025.1 mb 0.00 in0.0 mm 0.00 in0.0 mm 0.00 in0.0 mm
02:30 PM 56.5°F13.6°C 34.2°F1.2°C 43% 3.6 mph E5.8 kmh E 6.5 mph10.5 kmh 30.27 in1025.1 mb 0.00 in0.0 mm 0.00 in0.0 mm 0.00 in0.0 mm
02:40 PM 56.1°F13.4°C 32.7°F0.4°C 41% 6.0 mph NE9.7 kmh NE 10.7 mph17.2 kmh 30.27 in1025.1 mb 0.00 in0.0 mm 0.00 in0.0 mm 0.00 in0.0 mm
02:50 PM 55.6°F13.1°C 33.4°F0.8°C 43% 5.0 mph NNE8.0 kmh NNE 14.3 mph23.0 kmh 30.26 in1024.7 mb 0.00 in0.0 mm 0.00 in0.0 mm 0.00 in0.0 mm
03:00 PM 54.7°F12.6°C 32.6°F0.3°C 43% 5.5 mph NE8.9 kmh NE 14.3 mph23.0 kmh 30.26 in1024.7 mb 0.00 in0.0 mm 0.00 in0.0 mm 0.00 in0.0 mm
03:10 PM 54.3°F12.4°C 32.3°F0.2°C 43% 3.2 mph NNE5.1 kmh NNE 8.3 mph13.4 kmh 30.27 in1025.1 mb 0.00 in0.0 mm 0.00 in0.0 mm 0.00 in0.0 mm
03:20 PM 54.5°F12.5°C 32.4°F0.2°C 43% 3.7 mph N6.0 kmh N 8.9 mph14.3 kmh 30.27 in1025.1 mb 0.00 in0.0 mm 0.00 in0.0 mm 0.00 in0.0 mm
03:30 PM 54.1°F12.3°C 32.1°F0.1°C 43% 4.5 mph NE7.2 kmh NE 9.2 mph14.8 kmh 30.27 in1025.1 mb 0.00 in0.0 mm 0.00 in0.0 mm 0.00 in0.0 mm
03:40 PM 54.3°F12.4°C 32.3°F0.2°C 43% 5.2 mph E8.4 kmh E 6.7 mph10.8 kmh 30.27 in1025.1 mb 0.00 in0.0 mm 0.00 in0.0 mm 0.00 in0.0 mm
03:50 PM 54.1°F12.3°C 32.1°F0.1°C 43% 4.1 mph NE6.6 kmh NE 9.6 mph15.4 kmh 30.28 in1025.4 mb 0.00 in0.0 mm 0.00 in0.0 mm 0.00 in0.0 mm
04:00 PM 54.0°F12.2°C 31.4°F-0.3°C 42% 9.6 mph ENE15.4 kmh ENE 14.8 mph23.8 kmh 30.29 in1025.7 mb 0.00 in0.0 mm 0.00 in0.0 mm 0.00 in0.0 mm
04:10 PM 53.8°F12.1°C 31.8°F-0.1°C 43% 10.2 mph E16.4 kmh E 14.8 mph23.8 kmh 30.29 in1025.7 mb 0.00 in0.0 mm 0.00 in0.0 mm 0.00 in0.0 mm
04:20 PM 53.4°F11.9°C 31.5°F-0.3°C 43% 7.8 mph NE12.6 kmh NE 16.1 mph25.9 kmh 30.29 in1025.7 mb 0.00 in0.0 mm 0.00 in0.0 mm 0.00 in0.0 mm
04:30 PM 53.4°F11.9°C 31.5°F-0.3°C 43% 9.0 mph ENE14.5 kmh ENE 16.1 mph25.9 kmh 30.29 in1025.7 mb 0.00 in0.0 mm 0.00 in0.0 mm 0.00 in0.0 mm
04:40 PM 53.8°F12.1°C 30.6°F-0.8°C 41% 6.6 mph E10.6 kmh E 8.1 mph13.0 kmh 30.29 in1025.7 mb 0.00 in0.0 mm 0.00 in0.0 mm 0.00 in0.0 mm
04:50 PM 53.8°F12.1°C 30.6°F-0.8°C 41% 8.0 mph E12.9 kmh E 10.5 mph16.9 kmh 30.30 in1026.1 mb 0.00 in0.0 mm 0.00 in0.0 mm 0.00 in0.0 mm
05:00 PM 53.4°F11.9°C 30.3°F-0.9°C 41% 5.2 mph E8.4 kmh E 12.3 mph19.8 kmh 30.30 in1026.1 mb 0.00 in0.0 mm 0.00 in0.0 mm 0.00 in0.0 mm
05:10 PM 53.2°F11.8°C 30.7°F-0.7°C 42% 10.1 mph NE16.3 kmh NE 21.5 mph34.6 kmh 30.30 in1026.1 mb 0.00 in0.0 mm 0.00 in0.0 mm 0.00 in0.0 mm
05:20 PM 52.7°F11.5°C 31.4°F-0.3°C 44% 7.1 mph ESE11.4 kmh ESE 11.0 mph17.7 kmh 30.31 in1026.4 mb 0.00 in0.0 mm 0.00 in0.0 mm 0.00 in0.0 mm
05:30 PM 52.3°F11.3°C 29.9°F-1.2°C 42% 9.1 mph E14.6 kmh E 13.6 mph21.9 kmh 30.32 in1026.8 mb 0.00 in0.0 mm 0.00 in0.0 mm 0.00 in0.0 mm
05:40 PM 51.4°F10.8°C 29.7°F-1.3°C 43% 4.3 mph E6.9 kmh E 12.3 mph19.8 kmh 30.32 in1026.8 mb 0.00 in0.0 mm 0.00 in0.0 mm 0.00 in0.0 mm
05:50 PM 51.4°F10.8°C 29.1°F-1.6°C 42% 8.9 mph ENE14.3 kmh ENE 12.8 mph20.6 kmh 30.32 in1026.8 mb 0.00 in0.0 mm 0.00 in0.0 mm 0.00 in0.0 mm
06:00 PM 51.4°F10.8°C 29.1°F-1.6°C 42% 9.1 mph NNE14.6 kmh NNE 11.9 mph19.2 kmh 30.33 in1027.1 mb 0.00 in0.0 mm 0.00 in0.0 mm 0.00 in0.0 mm
06:10 PM 50.9°F10.5°C 29.7°F-1.3°C 44% 6.1 mph E9.8 kmh E 11.9 mph19.2 kmh 30.33 in1027.1 mb 0.00 in0.0 mm 0.00 in0.0 mm 0.00 in0.0 mm
06:20 PM 50.7°F10.4°C 29.6°F-1.3°C 44% 5.8 mph E9.3 kmh E 10.7 mph17.2 kmh 30.33 in1027.1 mb 0.00 in0.0 mm 0.00 in0.0 mm 0.00 in0.0 mm
06:30 PM 50.7°F10.4°C 29.6°F-1.3°C 44% 9.4 mph NE15.1 kmh NE 13.9 mph22.4 kmh 30.34 in1027.4 mb 0.00 in0.0 mm 0.00 in0.0 mm 0.00 in0.0 mm
06:40 PM 50.2°F10.1°C 29.6°F-1.3°C 45% 5.8 mph ESE9.3 kmh ESE 7.4 mph11.9 kmh 30.34 in1027.4 mb 0.00 in0.0 mm 0.00 in0.0 mm 0.00 in0.0 mm
06:50 PM 49.8°F9.9°C 29.3°F-1.5°C 45% 5.7 mph E9.2 kmh E 8.3 mph13.4 kmh 30.33 in1027.1 mb 0.00 in0.0 mm 0.00 in0.0 mm 0.00 in0.0 mm
07:00 PM 49.8°F9.9°C 28.8°F-1.8°C 44% 4.7 mph ENE7.6 kmh ENE 10.3 mph16.6 kmh 30.33 in1027.1 mb 0.00 in0.0 mm 0.00 in0.0 mm 0.00 in0.0 mm
07:10 PM 49.6°F9.8°C 29.1°F-1.6°C 45% 7.1 mph E11.4 kmh E 8.1 mph13.0 kmh 30.33 in1027.1 mb 0.00 in0.0 mm 0.00 in0.0 mm 0.00 in0.0 mm
07:20 PM 49.6°F9.8°C 29.7°F-1.3°C 46% 4.7 mph ESE7.6 kmh ESE 9.4 mph15.1 kmh 30.33 in1027.1 mb 0.00 in0.0 mm 0.00 in0.0 mm 0.00 in0.0 mm
07:30 PM 49.3°F9.6°C 29.4°F-1.4°C 46% 8.5 mph E13.7 kmh E 13.2 mph21.2 kmh 30.33 in1027.1 mb 0.00 in0.0 mm 0.00 in0.0 mm 0.00 in0.0 mm
07:40 PM 49.1°F9.5°C 29.7°F-1.3°C 47% 9.6 mph E15.4 kmh E 13.9 mph22.4 kmh 30.34 in1027.4 mb 0.00 in0.0 mm 0.00 in0.0 mm 0.00 in0.0 mm
07:50 PM 48.9°F9.4°C 30.1°F-1.1°C 48% 6.8 mph E10.9 kmh E 9.4 mph15.1 kmh 30.35 in1027.8 mb 0.00 in0.0 mm 0.00 in0.0 mm 0.00 in0.0 mm
08:00 PM 48.7°F9.3°C 29.9°F-1.2°C 48% 5.8 mph E9.3 kmh E 10.7 mph17.2 kmh 30.36 in1028.1 mb 0.00 in0.0 mm 0.00 in0.0 mm 0.00 in0.0 mm
08:10 PM 48.4°F9.1°C 30.1°F-1.1°C 49% 8.5 mph ESE13.7 kmh ESE 12.3 mph19.8 kmh 30.35 in1027.8 mb 0.00 in0.0 mm 0.00 in0.0 mm 0.00 in0.0 mm
08:20 PM 48.2°F9.0°C 30.4°F-0.9°C 50% 11.3 mph E18.2 kmh E 12.3 mph19.8 kmh 30.36 in1028.1 mb 0.00 in0.0 mm 0.00 in0.0 mm 0.00 in0.0 mm
08:30 PM 48.0°F8.9°C 30.2°F-1.0°C 50% 9.0 mph E14.5 kmh E 10.5 mph16.9 kmh 30.36 in1028.1 mb 0.00 in0.0 mm 0.00 in0.0 mm 0.00 in0.0 mm
08:40 PM 48.0°F8.9°C 30.2°F-1.0°C 50% 9.1 mph E14.6 kmh E 13.2 mph21.2 kmh 30.37 in1028.4 mb 0.00 in0.0 mm 0.00 in0.0 mm 0.00 in0.0 mm
08:50 PM 47.8°F8.8°C 30.1°F-1.1°C 50% 8.8 mph E14.2 kmh E 10.7 mph17.2 kmh 30.37 in1028.4 mb 0.00 in0.0 mm 0.00 in0.0 mm 0.00 in0.0 mm
09:00 PM 47.7°F8.7°C 30.4°F-0.9°C 51% 11.1 mph E17.9 kmh E 18.3 mph29.5 kmh 30.37 in1028.4 mb 0.00 in0.0 mm 0.00 in0.0 mm 0.00 in0.0 mm
09:10 PM 47.7°F8.7°C 30.4°F-0.9°C 51% 15.5 mph ESE24.9 kmh ESE 25.1 mph40.4 kmh 30.38 in1028.8 mb 0.00 in0.0 mm 0.00 in0.0 mm 0.00 in0.0 mm
09:20 PM 47.1°F8.4°C 29.9°F-1.2°C 51% 7.8 mph E12.6 kmh E 10.7 mph17.2 kmh 30.38 in1028.8 mb 0.00 in0.0 mm 0.00 in0.0 mm 0.00 in0.0 mm
09:30 PM 46.9°F8.3°C 30.2°F-1.0°C 52% 7.8 mph E12.6 kmh E 10.1 mph16.3 kmh 30.38 in1028.8 mb 0.00 in0.0 mm 0.00 in0.0 mm 0.00 in0.0 mm
09:40 PM 46.8°F8.2°C 30.0°F-1.1°C 52% 9.2 mph ESE14.8 kmh ESE 11.2 mph18.0 kmh 30.39 in1029.1 mb 0.00 in0.0 mm 0.00 in0.0 mm 0.00 in0.0 mm
09:50 PM 46.6°F8.1°C 29.9°F-1.2°C 52% 9.2 mph ESE14.8 kmh ESE 11.6 mph18.7 kmh 30.38 in1028.8 mb 0.00 in0.0 mm 0.00 in0.0 mm 0.00 in0.0 mm
10:00 PM 46.6°F8.1°C 29.9°F-1.2°C 52% 8.1 mph ESE13.0 kmh ESE 11.2 mph18.0 kmh 30.39 in1029.1 mb 0.00 in0.0 mm 0.00 in0.0 mm 0.00 in0.0 mm
10:10 PM 46.2°F7.9°C 30.0°F-1.1°C 53% 9.3 mph E15.0 kmh E 13.2 mph21.2 kmh 30.39 in1029.1 mb 0.00 in0.0 mm 0.00 in0.0 mm 0.00 in0.0 mm
10:20 PM 45.7°F7.6°C 29.5°F-1.4°C 53% 11.3 mph ESE18.2 kmh ESE 15.0 mph24.1 kmh 30.39 in1029.1 mb 0.00 in0.0 mm 0.00 in0.0 mm 0.00 in0.0 mm
10:30 PM 44.4°F6.9°C 30.6°F-0.8°C 58% 8.2 mph S13.2 kmh S 12.5 mph20.1 kmh 30.40 in1029.5 mb 0.00 in0.0 mm 0.00 in0.0 mm 0.00 in0.0 mm
10:40 PM 43.0°F6.1°C 30.8°F-0.7°C 62% 7.6 mph SSE12.2 kmh SSE 13.0 mph20.9 kmh 30.40 in1029.5 mb 0.00 in0.0 mm 0.00 in0.0 mm 0.00 in0.0 mm
10:50 PM 41.9°F5.5°C 31.4°F-0.3°C 66% 6.5 mph SE10.5 kmh SE 7.2 mph11.6 kmh 30.41 in1029.8 mb 0.00 in0.0 mm 0.00 in0.0 mm 0.00 in0.0 mm
11:00 PM 40.8°F4.9°C 31.1°F-0.5°C 68% 4.6 mph SSE7.4 kmh SSE 7.2 mph11.6 kmh 30.41 in1029.8 mb 0.00 in0.0 mm 0.00 in0.0 mm 0.00 in0.0 mm
11:10 PM 40.8°F4.9°C 30.7°F-0.7°C 67% 6.0 mph E9.7 kmh E 11.9 mph19.2 kmh 30.41 in1029.8 mb 0.00 in0.0 mm 0.00 in0.0 mm 0.00 in0.0 mm
11:20 PM 39.6°F4.2°C 30.6°F-0.8°C 70% 7.3 mph S11.7 kmh S 10.5 mph16.9 kmh 30.41 in1029.8 mb 0.00 in0.0 mm 0.00 in0.0 mm 0.00 in0.0 mm
11:30 PM 39.4°F4.1°C 30.4°F-0.9°C 70% 4.2 mph SE6.8 kmh SE 10.1 mph16.3 kmh 30.41 in1029.8 mb 0.00 in0.0 mm 0.00 in0.0 mm 0.00 in0.0 mm
11:40 PM 38.8°F3.8°C 29.9°F-1.2°C 70% 5.5 mph SSW8.9 kmh SSW 7.2 mph11.6 kmh 30.41 in1029.8 mb 0.00 in0.0 mm 0.00 in0.0 mm 0.00 in0.0 mm
11:50 PM 37.9°F3.3°C 29.4°F-1.4°C 71% 8.7 mph S14.0 kmh S 10.1 mph16.3 kmh 30.42 in1030.1 mb 0.00 in0.0 mm 0.00 in0.0 mm 0.00 in0.0 mm